sensor_id;sensor_type;location;lat;lon;timestamp;temperature;humidity
25300;DHT22;13241;51.208;4.432;2023-04-01T00:02:23;10.90;99.90
25300;DHT22;13241;51.208;4.432;2023-04-01T00:04:50;10.90;99.90
25300;DHT22;13241;51.208;4.432;2023-04-01T00:07:17;10.80;99.90
25300;DHT22;13241;51.208;4.432;2023-04-01T00:09:44;10.80;99.90
25300;DHT22;13241;51.208;4.432;2023-04-01T00:12:11;10.80;99.90
25300;DHT22;13241;51.208;4.432;2023-04-01T00:14:38;10.80;99.90
25300;DHT22;13241;51.208;4.432;2023-04-01T00:17:06;10.80;99.90
25300;DHT22;13241;51.208;4.432;2023-04-01T00:19:33;10.90;99.90
25300;DHT22;13241;51.208;4.432;2023-04-01T00:22:00;10.90;99.90
25300;DHT22;13241;51.208;4.432;2023-04-01T00:24:26;10.90;99.90
25300;DHT22;13241;51.208;4.432;2023-04-01T00:26:54;10.80;99.90
25300;DHT22;13241;51.208;4.432;2023-04-01T00:29:21;10.80;99.90
25300;DHT22;13241;51.208;4.432;2023-04-01T00:31:50;10.80;99.90
25300;DHT22;13241;51.208;4.432;2023-04-01T00:34:17;10.90;99.90
25300;DHT22;13241;51.208;4.432;2023-04-01T00:36:44;10.90;99.90
25300;DHT22;13241;51.208;4.432;2023-04-01T00:39:10;10.90;99.90
25300;DHT22;13241;51.208;4.432;2023-04-01T00:41:37;10.80;99.90
25300;DHT22;13241;51.208;4.432;2023-04-01T00:44:27;10.80;99.90
25300;DHT22;13241;51.208;4.432;2023-04-01T00:46:55;10.80;99.90
25300;DHT22;13241;51.208;4.432;2023-04-01T00:49:26;10.80;99.90
25300;DHT22;13241;51.208;4.432;2023-04-01T00:51:55;10.80;99.90
25300;DHT22;13241;51.208;4.432;2023-04-01T00:54:25;10.80;99.90
25300;DHT22;13241;51.208;4.432;2023-04-01T00:56:54;10.80;99.90
25300;DHT22;13241;51.208;4.432;2023-04-01T00:59:26;10.80;99.90
25300;DHT22;13241;51.208;4.432;2023-04-01T01:01:53;10.80;99.90
25300;DHT22;13241;51.208;4.432;2023-04-01T01:04:29;10.80;99.90
25300;DHT22;13241;51.208;4.432;2023-04-01T01:09:40;10.80;99.90
25300;DHT22;13241;51.208;4.432;2023-04-01T01:15:16;10.90;99.90
25300;DHT22;13241;51.208;4.432;2023-04-01T01:37:02;10.80;99.90
25300;DHT22;13241;51.208;4.432;2023-04-01T01:39:31;10.80;99.90
25300;DHT22;13241;51.208;4.432;2023-04-01T01:42:05;10.80;99.90
25300;DHT22;13241;51.208;4.432;2023-04-01T01:44:35;10.80;99.90
25300;DHT22;13241;51.208;4.432;2023-04-01T01:47:02;10.70;99.90
25300;DHT22;13241;51.208;4.432;2023-04-01T01:49:32;10.70;99.90
25300;DHT22;13241;51.208;4.432;2023-04-01T01:52:00;10.80;99.90
25300;DHT22;13241;51.208;4.432;2023-04-01T01:54:26;10.70;99.90
25300;DHT22;13241;51.208;4.432;2023-04-01T01:57:07;10.70;99.90
25300;DHT22;13241;51.208;4.432;2023-04-01T01:59:40;10.60;99.90
25300;DHT22;13241;51.208;4.432;2023-04-01T02:02:13;10.70;99.90
25300;DHT22;13241;51.208;4.432;2023-04-01T02:04:43;10.60;99.90
25300;DHT22;13241;51.208;4.432;2023-04-01T02:07:18;10.60;99.90
25300;DHT22;13241;51.208;4.432;2023-04-01T02:09:47;10.60;99.90
25300;DHT22;13241;51.208;4.432;2023-04-01T02:12:16;10.60;99.90
25300;DHT22;13241;51.208;4.432;2023-04-01T02:14:52;10.70;99.90
25300;DHT22;13241;51.208;4.432;2023-04-01T02:17:22;10.60;99.90
25300;DHT22;13241;51.208;4.432;2023-04-01T02:19:54;10.60;99.90
25300;DHT22;13241;51.208;4.432;2023-04-01T02:22:28;10.60;99.90
25300;DHT22;13241;51.208;4.432;2023-04-01T02:25:02;10.60;99.90
25300;DHT22;13241;51.208;4.432;2023-04-01T02:27:31;10.60;99.90
25300;DHT22;13241;51.208;4.432;2023-04-01T02:29:59;10.60;99.90
25300;DHT22;13241;51.208;4.432;2023-04-01T02:32:27;10.60;99.90
25300;DHT22;13241;51.208;4.432;2023-04-01T02:34:56;10.50;99.90
25300;DHT22;13241;51.208;4.432;2023-04-01T02:37:23;10.60;99.90
25300;DHT22;13241;51.208;4.432;2023-04-01T02:39:50;10.60;99.90
25300;DHT22;13241;51.208;4.432;2023-04-01T02:42:17;10.60;99.90
25300;DHT22;13241;51.208;4.432;2023-04-01T02:44:45;10.50;99.90
25300;DHT22;13241;51.208;4.432;2023-04-01T02:47:14;10.50;99.90
25300;DHT22;13241;51.208;4.432;2023-04-01T02:49:41;10.50;99.90
25300;DHT22;13241;51.208;4.432;2023-04-01T02:52:08;10.50;99.90
25300;DHT22;13241;51.208;4.432;2023-04-01T02:54:35;10.50;99.90
25300;DHT22;13241;51.208;4.432;2023-04-01T02:57:02;10.50;99.90
25300;DHT22;13241;51.208;4.432;2023-04-01T02:59:28;10.40;99.90
25300;DHT22;13241;51.208;4.432;2023-04-01T03:01:55;10.40;99.90
25300;DHT22;13241;51.208;4.432;2023-04-01T03:04:22;10.40;99.90
25300;DHT22;13241;51.208;4.432;2023-04-01T03:06:49;10.40;99.90
25300;DHT22;13241;51.208;4.432;2023-04-01T03:09:16;10.40;99.90
25300;DHT22;13241;51.208;4.432;2023-04-01T03:11:43;10.40;99.90
25300;DHT22;13241;51.208;4.432;2023-04-01T03:14:09;10.40;99.90
25300;DHT22;13241;51.208;4.432;2023-04-01T03:16:36;10.40;99.90
25300;DHT22;13241;51.208;4.432;2023-04-01T03:19:03;10.40;99.90
25300;DHT22;13241;51.208;4.432;2023-04-01T03:21:30;10.30;99.90
25300;DHT22;13241;51.208;4.432;2023-04-01T03:23:57;10.30;99.90
25300;DHT22;13241;51.208;4.432;2023-04-01T03:26:25;10.30;99.90
25300;DHT22;13241;51.208;4.432;2023-04-01T03:28:54;10.60;99.90
25300;DHT22;13241;51.208;4.432;2023-04-01T03:31:22;10.30;99.90
25300;DHT22;13241;51.208;4.432;2023-04-01T03:33:53;10.30;99.90
25300;DHT22;13241;51.208;4.432;2023-04-01T03:36:20;10.30;99.90
25300;DHT22;13241;51.208;4.432;2023-04-01T03:38:48;10.30;99.90
25300;DHT22;13241;51.208;4.432;2023-04-01T03:41:21;10.30;99.90
25300;DHT22;13241;51.208;4.432;2023-04-01T03:43:48;10.30;99.90
25300;DHT22;13241;51.208;4.432;2023-04-01T03:46:19;10.30;99.90
25300;DHT22;13241;51.208;4.432;2023-04-01T03:48:46;10.30;99.90
25300;DHT22;13241;51.208;4.432;2023-04-01T03:51:13;10.20;99.90
25300;DHT22;13241;51.208;4.432;2023-04-01T03:53:40;10.30;99.90
25300;DHT22;13241;51.208;4.432;2023-04-01T03:56:08;10.30;99.90
25300;DHT22;13241;51.208;4.432;2023-04-01T03:58:36;10.20;99.90
25300;DHT22;13241;51.208;4.432;2023-04-01T04:01:14;10.30;99.90
25300;DHT22;13241;51.208;4.432;2023-04-01T04:03:41;10.30;99.90
25300;DHT22;13241;51.208;4.432;2023-04-01T04:06:11;10.30;99.90
25300;DHT22;13241;51.208;4.432;2023-04-01T04:08:38;10.30;99.90
25300;DHT22;13241;51.208;4.432;2023-04-01T04:11:06;10.30;99.90
25300;DHT22;13241;51.208;4.432;2023-04-01T04:13:35;10.30;99.90
25300;DHT22;13241;51.208;4.432;2023-04-01T04:16:03;10.30;99.90
25300;DHT22;13241;51.208;4.432;2023-04-01T04:18:30;10.30;99.90
25300;DHT22;13241;51.208;4.432;2023-04-01T04:20:57;10.30;99.90
25300;DHT22;13241;51.208;4.432;2023-04-01T04:23:24;10.20;99.90
25300;DHT22;13241;51.208;4.432;2023-04-01T04:25:59;10.20;99.90
25300;DHT22;13241;51.208;4.432;2023-04-01T04:28:28;10.20;99.90
25300;DHT22;13241;51.208;4.432;2023-04-01T04:30:57;10.20;99.90
25300;DHT22;13241;51.208;4.432;2023-04-01T04:33:24;10.20;99.90
25300;DHT22;13241;51.208;4.432;2023-04-01T04:35:55;10.20;99.90
25300;DHT22;13241;51.208;4.432;2023-04-01T04:38:23;10.20;99.90
25300;DHT22;13241;51.208;4.432;2023-04-01T04:40:52;10.20;99.90
25300;DHT22;13241;51.208;4.432;2023-04-01T04:43:19;10.20;99.90
25300;DHT22;13241;51.208;4.432;2023-04-01T04:45:46;10.20;99.90
25300;DHT22;13241;51.208;4.432;2023-04-01T04:48:16;10.20;99.90
25300;DHT22;13241;51.208;4.432;2023-04-01T04:50:46;10.20;99.90
25300;DHT22;13241;51.208;4.432;2023-04-01T04:53:16;10.20;99.90
25300;DHT22;13241;51.208;4.432;2023-04-01T04:55:48;10.20;99.90
25300;DHT22;13241;51.208;4.432;2023-04-01T04:58:33;10.20;99.90
25300;DHT22;13241;51.208;4.432;2023-04-01T05:01:09;10.10;99.90
25300;DHT22;13241;51.208;4.432;2023-04-01T05:03:38;10.00;99.90
25300;DHT22;13241;51.208;4.432;2023-04-01T05:06:06;9.90;99.90
25300;DHT22;13241;51.208;4.432;2023-04-01T05:08:34;9.90;99.90
25300;DHT22;13241;51.208;4.432;2023-04-01T05:11:02;9.90;99.90
25300;DHT22;13241;51.208;4.432;2023-04-01T05:13:32;9.90;99.90
25300;DHT22;13241;51.208;4.432;2023-04-01T05:15:58;9.90;99.90
25300;DHT22;13241;51.208;4.432;2023-04-01T05:18:25;9.90;99.90
25300;DHT22;13241;51.208;4.432;2023-04-01T05:20:54;9.90;99.90
25300;DHT22;13241;51.208;4.432;2023-04-01T05:23:22;9.90;99.90
25300;DHT22;13241;51.208;4.432;2023-04-01T05:25:49;9.90;99.90
25300;DHT22;13241;51.208;4.432;2023-04-01T05:28:18;9.90;99.90
25300;DHT22;13241;51.208;4.432;2023-04-01T05:30:46;9.90;99.90
25300;DHT22;13241;51.208;4.432;2023-04-01T05:33:24;9.90;99.90
25300;DHT22;13241;51.208;4.432;2023-04-01T05:35:52;9.80;99.90
25300;DHT22;13241;51.208;4.432;2023-04-01T05:38:19;9.80;99.90
25300;DHT22;13241;51.208;4.432;2023-04-01T05:40:46;9.70;99.90
25300;DHT22;13241;51.208;4.432;2023-04-01T05:43:14;9.80;99.90
25300;DHT22;13241;51.208;4.432;2023-04-01T05:45:43;9.80;99.90
25300;DHT22;13241;51.208;4.432;2023-04-01T05:48:30;9.80;99.90
25300;DHT22;13241;51.208;4.432;2023-04-01T05:50:57;9.80;99.90
25300;DHT22;13241;51.208;4.432;2023-04-01T05:53:24;9.80;99.90
25300;DHT22;13241;51.208;4.432;2023-04-01T05:55:51;9.80;99.90
25300;DHT22;13241;51.208;4.432;2023-04-01T05:58:17;9.80;99.90
25300;DHT22;13241;51.208;4.432;2023-04-01T06:00:46;9.70;99.90
25300;DHT22;13241;51.208;4.432;2023-04-01T06:03:15;9.80;99.90
25300;DHT22;13241;51.208;4.432;2023-04-01T06:05:43;9.80;99.90
25300;DHT22;13241;51.208;4.432;2023-04-01T06:08:16;9.80;99.90
25300;DHT22;13241;51.208;4.432;2023-04-01T06:22:08;9.80;99.90
25300;DHT22;13241;51.208;4.432;2023-04-01T06:28:17;9.80;99.90
25300;DHT22;13241;51.208;4.432;2023-04-01T06:33:21;9.90;99.90
25300;DHT22;13241;51.208;4.432;2023-04-01T06:36:06;9.90;99.90
25300;DHT22;13241;51.208;4.432;2023-04-01T06:42:04;9.90;99.90
25300;DHT22;13241;51.208;4.432;2023-04-01T06:54:03;9.70;99.90
25300;DHT22;13241;51.208;4.432;2023-04-01T06:56:54;9.80;99.90
25300;DHT22;13241;51.208;4.432;2023-04-01T06:59:30;9.80;99.90
25300;DHT22;13241;51.208;4.432;2023-04-01T07:04:58;9.90;99.90
25300;DHT22;13241;51.208;4.432;2023-04-01T07:07:35;9.80;99.90
25300;DHT22;13241;51.208;4.432;2023-04-01T07:11:04;9.80;99.90
25300;DHT22;13241;51.208;4.432;2023-04-01T07:13:50;9.80;99.90
25300;DHT22;13241;51.208;4.432;2023-04-01T07:18:58;9.80;99.90
25300;DHT22;13241;51.208;4.432;2023-04-01T07:21:41;9.90;99.90
25300;DHT22;13241;51.208;4.432;2023-04-01T07:24:26;9.90;99.90
25300;DHT22;13241;51.208;4.432;2023-04-01T07:27:09;10.00;99.90
25300;DHT22;13241;51.208;4.432;2023-04-01T07:29:38;10.00;99.90
25300;DHT22;13241;51.208;4.432;2023-04-01T07:35:07;10.00;99.90
25300;DHT22;13241;51.208;4.432;2023-04-01T07:38:15;10.00;99.90
25300;DHT22;13241;51.208;4.432;2023-04-01T07:52:03;10.10;99.90
25300;DHT22;13241;51.208;4.432;2023-04-01T08:05:30;10.20;99.90
25300;DHT22;13241;51.208;4.432;2023-04-01T08:17:57;10.40;99.90
25300;DHT22;13241;51.208;4.432;2023-04-01T08:25:51;10.50;99.90
25300;DHT22;13241;51.208;4.432;2023-04-01T08:31:07;10.40;99.90
25300;DHT22;13241;51.208;4.432;2023-04-01T08:33:36;10.40;99.90
25300;DHT22;13241;51.208;4.432;2023-04-01T08:36:28;10.40;99.90
25300;DHT22;13241;51.208;4.432;2023-04-01T08:39:47;10.40;99.90
25300;DHT22;13241;51.208;4.432;2023-04-01T08:42:40;10.40;99.90
25300;DHT22;13241;51.208;4.432;2023-04-01T08:48:29;10.40;99.90
25300;DHT22;13241;51.208;4.432;2023-04-01T08:51:16;10.40;99.90
25300;DHT22;13241;51.208;4.432;2023-04-01T08:57:01;10.40;99.90
25300;DHT22;13241;51.208;4.432;2023-04-01T08:59:54;10.40;99.90
25300;DHT22;13241;51.208;4.432;2023-04-01T09:20:44;10.30;99.90
25300;DHT22;13241;51.208;4.432;2023-04-01T09:23:38;10.40;99.90
25300;DHT22;13241;51.208;4.432;2023-04-01T09:29:18;10.30;99.90
25300;DHT22;13241;51.208;4.432;2023-04-01T09:34:51;10.50;99.90
25300;DHT22;13241;51.208;4.432;2023-04-01T09:51:39;10.60;99.90
25300;DHT22;13241;51.208;4.432;2023-04-01T10:01:04;10.60;99.90
25300;DHT22;13241;51.208;4.432;2023-04-01T10:15:19;10.90;99.90
25300;DHT22;13241;51.208;4.432;2023-04-01T10:18:12;10.90;99.90
25300;DHT22;13241;51.208;4.432;2023-04-01T10:21:01;10.80;99.90
25300;DHT22;13241;51.208;4.432;2023-04-01T10:23:43;10.90;99.90
25300;DHT22;13241;51.208;4.432;2023-04-01T10:26:47;10.90;99.90
25300;DHT22;13241;51.208;4.432;2023-04-01T10:38:21;11.00;99.90
25300;DHT22;13241;51.208;4.432;2023-04-01T10:49:43;11.40;99.90
25300;DHT22;13241;51.208;4.432;2023-04-01T10:59:09;11.60;99.90
25300;DHT22;13241;51.208;4.432;2023-04-01T11:08:05;11.40;99.90
25300;DHT22;13241;51.208;4.432;2023-04-01T11:10:52;11.30;99.90
25300;DHT22;13241;51.208;4.432;2023-04-01T11:30:20;10.80;99.90
25300;DHT22;13241;51.208;4.432;2023-04-01T11:41:30;11.20;99.90
25300;DHT22;13241;51.208;4.432;2023-04-01T11:44:27;11.20;99.90
25300;DHT22;13241;51.208;4.432;2023-04-01T11:47:31;11.30;99.90
25300;DHT22;13241;51.208;4.432;2023-04-01T12:01:32;11.40;99.90
25300;DHT22;13241;51.208;4.432;2023-04-01T12:12:32;11.90;99.90
25300;DHT22;13241;51.208;4.432;2023-04-01T12:15:35;11.90;99.90
25300;DHT22;13241;51.208;4.432;2023-04-01T12:18:16;12.00;99.90
25300;DHT22;13241;51.208;4.432;2023-04-01T12:21:00;11.90;99.90
25300;DHT22;13241;51.208;4.432;2023-04-01T12:23:49;12.00;99.90
25300;DHT22;13241;51.208;4.432;2023-04-01T12:29:49;12.30;99.90
25300;DHT22;13241;51.208;4.432;2023-04-01T12:32:22;12.50;99.90
25300;DHT22;13241;51.208;4.432;2023-04-01T12:35:39;12.50;99.90
25300;DHT22;13241;51.208;4.432;2023-04-01T12:38:35;12.50;99.90
25300;DHT22;13241;51.208;4.432;2023-04-01T12:44:12;12.40;99.90
25300;DHT22;13241;51.208;4.432;2023-04-01T13:06:35;11.40;99.90
25300;DHT22;13241;51.208;4.432;2023-04-01T13:20:33;11.00;99.90
25300;DHT22;13241;51.208;4.432;2023-04-01T13:23:29;11.10;99.90
25300;DHT22;13241;51.208;4.432;2023-04-01T13:28:52;11.30;99.90
25300;DHT22;13241;51.208;4.432;2023-04-01T13:31:38;11.30;99.90
25300;DHT22;13241;51.208;4.432;2023-04-01T13:34:22;11.30;99.90
25300;DHT22;13241;51.208;4.432;2023-04-01T13:36:57;11.50;99.90
25300;DHT22;13241;51.208;4.432;2023-04-01T13:45:14;11.60;99.90
25300;DHT22;13241;51.208;4.432;2023-04-01T13:50:53;11.50;99.90
25300;DHT22;13241;51.208;4.432;2023-04-01T13:56:16;11.40;99.90
25300;DHT22;13241;51.208;4.432;2023-04-01T13:59:02;11.40;99.90
25300;DHT22;13241;51.208;4.432;2023-04-01T14:01:37;11.30;99.90
25300;DHT22;13241;51.208;4.432;2023-04-01T14:04:41;11.40;99.90
25300;DHT22;13241;51.208;4.432;2023-04-01T14:20:41;11.40;99.90
25300;DHT22;13241;51.208;4.432;2023-04-01T14:26:07;11.50;99.90
25300;DHT22;13241;51.208;4.432;2023-04-01T14:50:49;11.40;99.90
25300;DHT22;13241;51.208;4.432;2023-04-01T14:53:34;11.40;99.90
25300;DHT22;13241;51.208;4.432;2023-04-01T14:56:05;11.20;99.90
25300;DHT22;13241;51.208;4.432;2023-04-01T14:58:47;11.40;99.90
25300;DHT22;13241;51.208;4.432;2023-04-01T15:01:43;11.40;99.90
25300;DHT22;13241;51.208;4.432;2023-04-01T15:13:33;11.20;99.90
25300;DHT22;13241;51.208;4.432;2023-04-01T15:16:20;11.30;99.90
25300;DHT22;13241;51.208;4.432;2023-04-01T15:24:07;11.30;99.90
25300;DHT22;13241;51.208;4.432;2023-04-01T15:34:57;10.80;99.90
25300;DHT22;13241;51.208;4.432;2023-04-01T15:43:40;10.80;99.90
25300;DHT22;13241;51.208;4.432;2023-04-01T15:46:25;10.80;99.90
25300;DHT22;13241;51.208;4.432;2023-04-01T15:51:40;10.90;99.90
25300;DHT22;13241;51.208;4.432;2023-04-01T15:59:53;10.70;99.90
25300;DHT22;13241;51.208;4.432;2023-04-01T16:11:17;10.70;99.90
25300;DHT22;13241;51.208;4.432;2023-04-01T16:16:48;10.70;99.90
25300;DHT22;13241;51.208;4.432;2023-04-01T16:19:27;10.70;99.90
25300;DHT22;13241;51.208;4.432;2023-04-01T16:22:07;10.60;99.90
25300;DHT22;13241;51.208;4.432;2023-04-01T16:35:58;10.30;99.90
25300;DHT22;13241;51.208;4.432;2023-04-01T16:38:38;10.40;99.90
25300;DHT22;13241;51.208;4.432;2023-04-01T16:41:17;10.30;99.90
25300;DHT22;13241;51.208;4.432;2023-04-01T16:43:49;10.30;99.90
25300;DHT22;13241;51.208;4.432;2023-04-01T16:46:34;10.40;99.90
25300;DHT22;13241;51.208;4.432;2023-04-01T16:51:53;10.30;99.90
25300;DHT22;13241;51.208;4.432;2023-04-01T17:00:27;10.30;99.90
25300;DHT22;13241;51.208;4.432;2023-04-01T17:08:45;10.30;99.90
25300;DHT22;13241;51.208;4.432;2023-04-01T17:11:19;10.20;99.90
25300;DHT22;13241;51.208;4.432;2023-04-01T17:30:31;10.30;99.90
25300;DHT22;13241;51.208;4.432;2023-04-01T17:42:14;10.40;99.90
25300;DHT22;13241;51.208;4.432;2023-04-01T17:47:58;10.20;99.90
25300;DHT22;13241;51.208;4.432;2023-04-01T17:59:01;10.10;99.90
25300;DHT22;13241;51.208;4.432;2023-04-01T18:01:46;10.10;99.90
25300;DHT22;13241;51.208;4.432;2023-04-01T18:10:10;10.10;99.90
25300;DHT22;13241;51.208;4.432;2023-04-01T18:23:56;10.20;99.90
25300;DHT22;13241;51.208;4.432;2023-04-01T18:26:33;10.10;99.90
25300;DHT22;13241;51.208;4.432;2023-04-01T18:29:35;10.10;99.90
25300;DHT22;13241;51.208;4.432;2023-04-01T18:34:52;10.00;99.90
25300;DHT22;13241;51.208;4.432;2023-04-01T18:37:31;10.00;99.90
25300;DHT22;13241;51.208;4.432;2023-04-01T18:40:28;9.90;99.90
25300;DHT22;13241;51.208;4.432;2023-04-01T18:43:14;9.90;99.90
25300;DHT22;13241;51.208;4.432;2023-04-01T18:46:00;10.00;99.90
25300;DHT22;13241;51.208;4.432;2023-04-01T18:48:51;10.00;99.90
25300;DHT22;13241;51.208;4.432;2023-04-01T18:51:24;10.00;99.90
25300;DHT22;13241;51.208;4.432;2023-04-01T18:54:00;10.00;99.90
25300;DHT22;13241;51.208;4.432;2023-04-01T18:56:35;10.00;99.90
25300;DHT22;13241;51.208;4.432;2023-04-01T18:59:34;10.00;99.90
25300;DHT22;13241;51.208;4.432;2023-04-01T19:10:17;10.00;99.90
25300;DHT22;13241;51.208;4.432;2023-04-01T19:20:53;10.00;99.90
25300;DHT22;13241;51.208;4.432;2023-04-01T19:50:31;10.20;99.90
25300;DHT22;13241;51.208;4.432;2023-04-01T19:56:20;10.20;99.90
25300;DHT22;13241;51.208;4.432;2023-04-01T19:59:34;10.20;99.90
25300;DHT22;13241;51.208;4.432;2023-04-01T20:04:42;10.30;99.90
25300;DHT22;13241;51.208;4.432;2023-04-01T20:10:07;10.20;99.90
25300;DHT22;13241;51.208;4.432;2023-04-01T20:12:52;10.20;99.90
25300;DHT22;13241;51.208;4.432;2023-04-01T20:15:33;10.20;99.90
25300;DHT22;13241;51.208;4.432;2023-04-01T20:18:16;10.20;99.90
25300;DHT22;13241;51.208;4.432;2023-04-01T20:21:16;10.20;99.90
25300;DHT22;13241;51.208;4.432;2023-04-01T20:26:47;10.20;99.90
25300;DHT22;13241;51.208;4.432;2023-04-01T20:29:23;10.20;99.90
25300;DHT22;13241;51.208;4.432;2023-04-01T20:32:16;10.20;99.90
25300;DHT22;13241;51.208;4.432;2023-04-01T20:35:02;10.20;99.90
25300;DHT22;13241;51.208;4.432;2023-04-01T20:37:57;10.20;99.90
25300;DHT22;13241;51.208;4.432;2023-04-01T20:40:33;10.20;99.90
25300;DHT22;13241;51.208;4.432;2023-04-01T20:43:35;10.20;99.90
25300;DHT22;13241;51.208;4.432;2023-04-01T20:46:20;10.20;99.90
25300;DHT22;13241;51.208;4.432;2023-04-01T20:48:58;10.30;99.90
25300;DHT22;13241;51.208;4.432;2023-04-01T20:51:32;10.20;99.90
25300;DHT22;13241;51.208;4.432;2023-04-01T20:54:24;10.10;99.90
25300;DHT22;13241;51.208;4.432;2023-04-01T20:57:55;10.10;99.90
25300;DHT22;13241;51.208;4.432;2023-04-01T21:05:27;10.10;99.90
25300;DHT22;13241;51.208;4.432;2023-04-01T21:08:23;10.00;99.90
25300;DHT22;13241;51.208;4.432;2023-04-01T21:11:31;10.00;99.90
25300;DHT22;13241;51.208;4.432;2023-04-01T21:14:27;10.10;99.90
25300;DHT22;13241;51.208;4.432;2023-04-01T21:25:45;10.00;99.90
25300;DHT22;13241;51.208;4.432;2023-04-01T21:37:08;9.90;99.90
25300;DHT22;13241;51.208;4.432;2023-04-01T21:45:33;9.90;99.90
25300;DHT22;13241;51.208;4.432;2023-04-01T21:48:22;10.00;99.90
25300;DHT22;13241;51.208;4.432;2023-04-01T21:51:08;9.90;99.90
25300;DHT22;13241;51.208;4.432;2023-04-01T21:59:40;9.90;99.90
25300;DHT22;13241;51.208;4.432;2023-04-01T22:05:20;9.90;99.90
25300;DHT22;13241;51.208;4.432;2023-04-01T22:13:37;9.70;99.90
25300;DHT22;13241;51.208;4.432;2023-04-01T22:16:48;9.70;99.90
25300;DHT22;13241;51.208;4.432;2023-04-01T22:22:13;9.60;99.90
25300;DHT22;13241;51.208;4.432;2023-04-01T22:28:00;9.60;99.90
25300;DHT22;13241;51.208;4.432;2023-04-01T22:30:53;9.70;99.90
25300;DHT22;13241;51.208;4.432;2023-04-01T22:52:58;9.60;99.90
25300;DHT22;13241;51.208;4.432;2023-04-01T22:55:34;9.60;99.90
25300;DHT22;13241;51.208;4.432;2023-04-01T22:58:12;9.50;99.90
25300;DHT22;13241;51.208;4.432;2023-04-01T23:00:49;9.40;99.90
25300;DHT22;13241;51.208;4.432;2023-04-01T23:03:29;9.40;99.90
25300;DHT22;13241;51.208;4.432;2023-04-01T23:06:00;9.30;99.90
25300;DHT22;13241;51.208;4.432;2023-04-01T23:11:14;9.30;99.90
25300;DHT22;13241;51.208;4.432;2023-04-01T23:13:47;9.20;99.90
25300;DHT22;13241;51.208;4.432;2023-04-01T23:16:30;9.20;99.90
25300;DHT22;13241;51.208;4.432;2023-04-01T23:19:12;9.30;99.90
25300;DHT22;13241;51.208;4.432;2023-04-01T23:27:39;9.20;99.90
25300;DHT22;13241;51.208;4.432;2023-04-01T23:30:45;9.20;99.90
25300;DHT22;13241;51.208;4.432;2023-04-01T23:38:19;9.10;99.90
25300;DHT22;13241;51.208;4.432;2023-04-01T23:40:49;9.10;99.90
25300;DHT22;13241;51.208;4.432;2023-04-01T23:43:25;9.00;99.90
25300;DHT22;13241;51.208;4.432;2023-04-01T23:45:55;9.10;99.90
25300;DHT22;13241;51.208;4.432;2023-04-01T23:48:29;9.00;99.90
25300;DHT22;13241;51.208;4.432;2023-04-01T23:50:57;9.00;99.90
25300;DHT22;13241;51.208;4.432;2023-04-01T23:53:28;9.00;99.90
25300;DHT22;13241;51.208;4.432;2023-04-01T23:55:56;8.90;99.90
25300;DHT22;13241;51.208;4.432;2023-04-01T23:58:25;8.90;99.90
